Pagrindinis puslapis
METAR-TAF:

METAR-TAF

Oro uostai :

Lycksele, Švedija

platuma: 64-32-51N, ilguma: 018-43-03E, Aukštis: 211 m

Dabartinis oras

Ataskaita buvo paskelbta 36 minutes, ne 13:20 UTC
Vėjas 7 kt iš Šiaurės Vakarų
Temperatūra -2°C
Drėgmė 80%
Slėgis 999 hPa
Matomumas 10 km arba daugiau

METAR: ESNL 191320Z AUTO 32007KT 9999 BKN014/// OVC054/// M02/M05 Q0999

Laikas: 14:56 (13:56 UTC)


TAF: trūkstamas

Orai ataskaitas ir orų prognozės (METAR, TAF).

turimą stotys yra geltonos ir raudonos taškus žemėlapyje.

Perkelti pele per norėdami pamatyti stoties vardą.

Tada spustelėkite, norėdami matyti oro stebėjimo ir prognozės.

Norėdami pakeisti žemėlapį: spustelėkite ant žalios mygtukų su juodo kryžiaus žemyn,; žalią mygtuką su brūkšneliu, jei norite nutolinti; arba žalių rodyklių gretimoms žemėlapius.


METAR-TAF: